Time;durP1;ratioP1;P1;durP2;ratioP2;P2;SDS_P1;SDS_P2;PMS_P1;PMS_P2;Temp;Humidity;BMP_temperature;BMP_pressure;BME280_temperature;BME280_humidity;BME280_pressure;Samples;Min_cycle;Max_cycle;Signal;HPM_P1;HPM_P2
2022/03/24 00:01:39;;;;;;;56.03;39.60;;;10.30;99.90;;;;;;4991576;28;20146;-73
2022/03/24 00:04:05;;;;;;;58.53;40.53;;;10.30;99.90;;;;;;4991102;28;20542;-71
2022/03/24 00:06:30;;;;;;;57.78;41.60;;;10.30;99.90;;;;;;4991423;28;20105;-72
2022/03/24 00:08:56;;;;;;;56.67;40.92;;;10.30;99.90;;;;;;4993778;28;20148;-72
2022/03/24 00:11:22;;;;;;;56.75;39.97;;;10.20;99.90;;;;;;4989530;28;20078;-72
2022/03/24 00:13:50;;;;;;;55.55;40.03;;;10.20;99.90;;;;;;4991633;28;20046;-72
2022/03/24 00:16:17;;;;;;;57.72;41.05;;;10.10;99.90;;;;;;4991382;28;20411;-72
2022/03/24 00:18:46;;;;;;;61.58;40.72;;;10.10;99.90;;;;;;4991255;28;20054;-72
2022/03/24 00:21:11;;;;;;;58.95;40.33;;;10.00;99.90;;;;;;4990758;28;20100;-72
2022/03/24 00:23:37;;;;;;;60.25;40.75;;;10.00;99.90;;;;;;4993770;28;20046;-73
2022/03/24 00:26:03;;;;;;;53.33;39.35;;;10.00;99.90;;;;;;4991434;28;20039;-72
2022/03/24 00:28:31;;;;;;;62.20;40.97;;;9.90;99.90;;;;;;4991290;28;20555;-72
2022/03/24 00:30:57;;;;;;;58.22;40.30;;;9.90;99.90;;;;;;4973636;28;20089;-72
2022/03/24 00:33:24;;;;;;;55.45;41.67;;;9.90;99.90;;;;;;4973269;28;20578;-72
2022/03/24 00:35:50;;;;;;;59.75;40.28;;;9.90;99.90;;;;;;4973477;28;20520;-72
2022/03/24 00:38:16;;;;;;;57.33;41.50;;;9.80;99.90;;;;;;4990671;28;20046;-72
2022/03/24 00:40:43;;;;;;;57.95;41.65;;;8.90;99.90;;;;;;4989310;28;20086;-72
2022/03/24 00:43:10;;;;;;;60.38;40.15;;;9.70;99.90;;;;;;4979290;28;20050;-73
2022/03/24 00:45:36;;;;;;;59.03;41.90;;;9.70;99.90;;;;;;4970207;28;20451;-72
2022/03/24 00:48:01;;;;;;;59.95;41.03;;;9.70;99.90;;;;;;4971853;28;20419;-72
2022/03/24 00:50:27;;;;;;;57.63;40.88;;;9.60;99.90;;;;;;4971238;28;20047;-72
2022/03/24 00:52:53;;;;;;;60.47;43.25;;;9.60;99.90;;;;;;4970691;28;20566;-73
2022/03/24 00:55:20;;;;;;;64.75;43.47;;;9.60;99.90;;;;;;4952838;28;20074;-72
2022/03/24 00:57:52;;;;;;;60.00;41.30;;;9.60;99.90;;;;;;4972936;28;20046;-72
2022/03/24 01:00:20;;;;;;;62.42;42.25;;;9.60;99.90;;;;;;4953217;28;20487;-72
2022/03/24 01:02:51;;;;;;;59.95;41.38;;;9.50;99.90;;;;;;4954140;28;20101;-73
2022/03/24 01:05:17;;;;;;;60.38;42.45;;;9.50;99.90;;;;;;4971269;28;20085;-73
2022/03/24 01:07:44;;;;;;;63.03;43.03;;;9.50;99.90;;;;;;4972735;28;20053;-74
2022/03/24 01:10:12;;;;;;;60.35;42.35;;;9.40;99.90;;;;;;4972010;28;20399;-72
2022/03/24 01:12:39;;;;;;;61.47;42.22;;;9.40;99.90;;;;;;4953959;28;20174;-72
2022/03/24 01:15:07;;;;;;;58.88;41.33;;;9.40;99.90;;;;;;4978955;28;20612;-74
2022/03/24 01:17:34;;;;;;;64.28;43.28;;;9.40;99.90;;;;;;4990038;28;20109;-71
2022/03/24 01:20:00;;;;;;;65.03;42.03;;;9.40;99.90;;;;;;4972633;28;20046;-72
2022/03/24 01:22:25;;;;;;;61.28;41.55;;;9.30;99.90;;;;;;4991467;28;20406;-72
2022/03/24 01:24:51;;;;;;;67.85;43.67;;;9.30;99.90;;;;;;4990817;28;20070;-72
2022/03/24 01:27:17;;;;;;;63.22;42.85;;;9.30;99.90;;;;;;4991971;28;20042;-72
2022/03/24 01:29:44;;;;;;;64.85;43.30;;;9.30;99.90;;;;;;4988762;28;20038;-72
2022/03/24 01:32:10;;;;;;;57.38;41.15;;;9.20;99.90;;;;;;4990519;28;20054;-72
2022/03/24 01:34:37;;;;;;;62.00;42.78;;;9.20;99.90;;;;;;4988833;28;20054;-72
2022/03/24 01:37:05;;;;;;;65.07;42.95;;;9.10;99.90;;;;;;4990488;28;20049;-72
2022/03/24 01:39:31;;;;;;;63.25;41.20;;;9.10;99.90;;;;;;4989276;28;20050;-72
2022/03/24 01:41:57;;;;;;;65.40;43.05;;;9.10;99.90;;;;;;4988697;28;20049;-72
2022/03/24 01:44:23;;;;;;;62.95;42.17;;;9.10;99.90;;;;;;4990273;28;20487;-72
2022/03/24 01:47:08;;;;;;;67.07;45.60;;;9.00;99.90;;;;;;4990541;28;20058;-72
2022/03/24 01:49:39;;;;;;;67.50;45.45;;;9.00;99.90;;;;;;4991565;28;20422;-74
2022/03/24 01:52:07;;;;;;;68.70;45.03;;;9.00;99.90;;;;;;4990603;28;20045;-74
2022/03/24 01:54:35;;;;;;;69.20;45.80;;;9.00;99.90;;;;;;4972090;28;20426;-72
2022/03/24 01:57:02;;;;;;;68.25;45.15;;;9.00;99.90;;;;;;4969015;28;20050;-72
2022/03/24 01:59:28;;;;;;;64.70;43.22;;;8.90;99.90;;;;;;4970397;28;20519;-72
2022/03/24 02:01:54;;;;;;;67.22;45.33;;;8.90;99.90;;;;;;4952715;28;20145;-71
2022/03/24 02:04:20;;;;;;;68.57;44.90;;;8.90;99.90;;;;;;4952102;28;20395;-72
2022/03/24 02:06:46;;;;;;;63.72;42.95;;;8.80;99.90;;;;;;4970078;28;20054;-71
2022/03/24 02:09:13;;;;;;;64.78;44.47;;;8.80;99.90;;;;;;4970158;28;20479;-72
2022/03/24 02:11:39;;;;;;;66.97;43.95;;;8.80;99.90;;;;;;4951000;28;20051;-72
2022/03/24 02:14:06;;;;;;;66.00;44.50;;;8.70;99.90;;;;;;4969942;28;20492;-72
2022/03/24 02:16:35;;;;;;;72.90;44.92;;;8.70;99.90;;;;;;4970962;28;20123;-72
2022/03/24 02:19:18;;;;;;;72.32;45.33;;;8.70;99.90;;;;;;4970120;28;20109;-72
2022/03/24 02:21:45;;;;;;;70.13;45.78;;;8.70;99.90;;;;;;4949138;29;20066;-72
2022/03/24 02:24:13;;;;;;;65.40;43.28;;;8.70;99.90;;;;;;4949996;28;20051;-72
2022/03/24 02:26:42;;;;;;;70.10;45.28;;;8.60;99.90;;;;;;4949422;28;20039;-72
2022/03/24 02:29:10;;;;;;;70.18;45.38;;;8.60;99.90;;;;;;4950475;28;20087;-72
2022/03/24 02:31:46;;;;;;;68.93;44.83;;;8.60;99.90;;;;;;4949575;28;20545;-72
2022/03/24 02:37:00;;;;;;;68.97;45.60;;;9.70;99.90;;;;;;4950354;29;20488;-72
2022/03/24 02:39:26;;;;;;;68.60;44.50;;;8.50;99.90;;;;;;4948548;28;20134;-72
2022/03/24 02:41:57;;;;;;;74.90;47.55;;;8.50;99.90;;;;;;4949050;28;20047;-72
2022/03/24 02:44:25;;;;;;;77.10;48.15;;;8.50;99.90;;;;;;4950172;28;20067;-72
2022/03/24 02:46:53;;;;;;;74.47;47.85;;;8.50;99.90;;;;;;4949633;29;20102;-72
2022/03/24 02:49:24;;;;;;;72.97;47.25;;;8.50;99.90;;;;;;4950548;29;20119;-73
2022/03/24 02:51:51;;;;;;;66.63;45.50;;;8.40;99.90;;;;;;4950480;29;20047;-72
2022/03/24 02:54:20;;;;;;;76.78;48.08;;;8.40;99.90;;;;;;4951320;29;20051;-71
2022/03/24 02:56:46;;;;;;;73.10;45.88;;;8.40;99.90;;;;;;4947963;29;20126;-72
2022/03/24 02:59:13;;;;;;;72.22;47.30;;;8.30;99.90;;;;;;4951306;29;20051;-72
2022/03/24 03:01:47;;;;;;;74.78;48.50;;;8.30;99.90;;;;;;4950091;29;20377;-72
2022/03/24 03:04:14;;;;;;;69.97;45.83;;;8.30;99.90;;;;;;4950339;28;20047;-73
2022/03/24 03:06:39;;;;;;;78.43;48.72;;;8.30;99.90;;;;;;4949455;28;20050;-73
2022/03/24 03:09:06;;;;;;;75.68;49.30;;;8.30;99.90;;;;;;4950024;29;20391;-72
2022/03/24 03:11:32;;;;;;;74.15;47.78;;;8.30;99.90;;;;;;4948651;29;20039;-72
2022/03/24 03:14:00;;;;;;;74.57;48.13;;;8.20;99.90;;;;;;4951369;29;20130;-73
2022/03/24 03:16:26;;;;;;;72.40;48.42;;;8.20;99.90;;;;;;4949605;28;20051;-72
2022/03/24 03:18:52;;;;;;;77.70;48.78;;;8.20;99.90;;;;;;4950342;28;20051;-72
2022/03/24 03:21:17;;;;;;;73.18;48.70;;;8.10;99.90;;;;;;4957059;28;20131;-72
2022/03/24 03:23:44;;;;;;;81.18;48.90;;;8.10;99.90;;;;;;4969656;28;20063;-72
2022/03/24 03:26:11;;;;;;;78.22;50.75;;;8.10;99.90;;;;;;4968275;28;20065;-72
2022/03/24 03:28:37;;;;;;;78.93;49.47;;;8.10;99.90;;;;;;4951218;28;20047;-72
2022/03/24 03:31:05;;;;;;;77.40;49.28;;;8.00;99.90;;;;;;4968832;28;20449;-72
2022/03/24 03:33:34;;;;;;;78.55;50.35;;;8.00;99.90;;;;;;4951809;28;20097;-72
2022/03/24 03:36:00;;;;;;;76.38;49.30;;;8.00;99.90;;;;;;4968429;28;20114;-72
2022/03/24 03:38:26;;;;;;;79.05;49.58;;;8.00;99.90;;;;;;4969395;28;20043;-73
2022/03/24 03:40:53;;;;;;;75.95;48.17;;;8.00;99.90;;;;;;4967415;28;20408;-72
2022/03/24 03:43:19;;;;;;;81.65;51.25;;;8.00;99.90;;;;;;4968558;28;20046;-72
2022/03/24 03:45:46;;;;;;;80.78;49.67;;;7.90;99.90;;;;;;4951527;28;20476;-72
2022/03/24 03:48:12;;;;;;;79.47;50.92;;;7.90;99.90;;;;;;4970851;28;20050;-72
2022/03/24 03:50:41;;;;;;;79.45;51.15;;;7.90;99.90;;;;;;4970415;28;20047;-73
2022/03/24 03:53:08;;;;;;;76.63;50.00;;;7.90;99.90;;;;;;4972685;28;20073;-72
2022/03/24 03:55:37;;;;;;;81.18;50.63;;;7.90;99.90;;;;;;4969730;28;20071;-72
2022/03/24 03:58:04;;;;;;;81.50;51.38;;;7.80;99.90;;;;;;4972581;28;20062;-72
2022/03/24 04:03:14;;;;;;;81.43;51.03;;;7.80;99.90;;;;;;4972083;28;20054;-72
2022/03/24 04:05:40;;;;;;;83.53;51.92;;;7.80;99.90;;;;;;4972281;28;20053;-73
2022/03/24 04:08:09;;;;;;;81.32;51.85;;;7.80;99.90;;;;;;4974195;28;20520;-72
2022/03/24 04:10:35;;;;;;;81.68;49.88;;;7.70;99.90;;;;;;4970376;28;20043;-72
2022/03/24 04:13:00;;;;;;;81.57;52.85;;;7.70;99.90;;;;;;4972477;28;20177;-72
2022/03/24 04:15:26;;;;;;;78.70;51.15;;;7.70;99.90;;;;;;4971819;28;20130;-73
2022/03/24 04:17:52;;;;;;;79.45;50.92;;;7.70;99.90;;;;;;4971347;28;20047;-72
2022/03/24 04:20:21;;;;;;;83.05;51.00;;;7.60;99.90;;;;;;4954133;28;20050;-72
2022/03/24 04:23:01;;;;;;;80.07;52.05;;;7.60;99.90;;;;;;4971774;28;20607;-72
2022/03/24 04:25:27;;;;;;;85.80;51.30;;;7.60;99.90;;;;;;4970211;28;20047;-72
2022/03/24 04:27:53;;;;;;;78.80;52.75;;;7.60;99.90;;;;;;4971550;28;20047;-72
2022/03/24 04:30:19;;;;;;;81.43;53.53;;;7.90;99.90;;;;;;4972308;28;20042;-72
2022/03/24 04:32:45;;;;;;;85.97;52.97;;;7.50;99.90;;;;;;4973539;28;20043;-72
2022/03/24 04:35:11;;;;;;;79.13;50.28;;;7.50;99.90;;;;;;4971266;28;20039;-72
2022/03/24 04:37:37;;;;;;;80.95;50.05;;;7.50;99.90;;;;;;4954422;28;20043;-72
2022/03/24 04:40:05;;;;;;;79.38;50.17;;;7.50;99.90;;;;;;4969501;28;20054;-71
2022/03/24 04:42:32;;;;;;;77.75;49.63;;;7.50;99.90;;;;;;4971820;28;20102;-72
2022/03/24 04:44:57;;;;;;;77.32;50.55;;;7.50;99.90;;;;;;4970640;28;20377;-72
2022/03/24 04:47:23;;;;;;;81.22;50.15;;;7.50;99.90;;;;;;4971570;28;20122;-71
2022/03/24 04:49:49;;;;;;;79.18;49.45;;;7.50;99.90;;;;;;4971062;28;20082;-72
2022/03/24 04:52:15;;;;;;;75.80;48.97;;;7.40;99.90;;;;;;4971078;28;20046;-71
2022/03/24 04:54:40;;;;;;;80.95;48.45;;;7.40;99.90;;;;;;4970107;28;20062;-72
2022/03/24 04:57:06;;;;;;;79.85;48.22;;;7.40;99.90;;;;;;4938865;28;20475;-72
2022/03/24 04:59:32;;;;;;;78.45;50.05;;;7.40;99.90;;;;;;4970292;28;20046;-72
2022/03/24 05:01:57;;;;;;;77.88;48.78;;;7.40;99.90;;;;;;4970113;28;20322;-72
2022/03/24 05:04:24;;;;;;;73.82;47.50;;;7.40;99.90;;;;;;4971145;28;20054;-71
2022/03/24 05:06:53;;;;;;;79.93;50.40;;;7.40;99.90;;;;;;4970389;28;20053;-73
2022/03/24 05:09:19;;;;;;;78.35;50.50;;;7.40;99.90;;;;;;4953372;28;20042;-73
2022/03/24 05:11:45;;;;;;;76.40;50.03;;;7.40;99.90;;;;;;4969840;28;20046;-73
2022/03/24 05:14:11;;;;;;;79.00;50.50;;;7.40;99.90;;;;;;4953412;28;20470;-73
2022/03/24 05:16:37;;;;;;;82.43;51.35;;;7.40;99.90;;;;;;4970420;28;20130;-73
2022/03/24 05:19:03;;;;;;;76.15;48.60;;;7.40;99.90;;;;;;4971331;28;20130;-73
2022/03/24 05:21:29;;;;;;;81.00;50.55;;;7.40;99.90;;;;;;4969068;28;20066;-73
2022/03/24 05:23:55;;;;;;;74.10;48.67;;;7.40;99.90;;;;;;4970168;28;20534;-73
2022/03/24 05:26:23;;;;;;;79.53;52.35;;;7.40;99.90;;;;;;4968956;28;20078;-72
2022/03/24 05:28:49;;;;;;;78.55;50.78;;;7.30;99.90;;;;;;4968882;28;20523;-73
2022/03/24 05:31:16;;;;;;;77.75;49.75;;;7.30;99.90;;;;;;4969667;28;20408;-72
2022/03/24 05:33:43;;;;;;;80.65;51.90;;;7.30;99.90;;;;;;4951445;28;20547;-73
2022/03/24 05:36:08;;;;;;;77.40;50.70;;;7.30;99.90;;;;;;4969308;28;20377;-72
2022/03/24 05:38:34;;;;;;;79.28;51.83;;;7.30;99.90;;;;;;4938117;28;20098;-72
2022/03/24 05:41:00;;;;;;;79.55;50.22;;;7.30;99.90;;;;;;4969338;28;20506;-72
2022/03/24 05:43:26;;;;;;;81.60;51.33;;;7.30;99.90;;;;;;4970231;28;20092;-72
2022/03/24 05:45:51;;;;;;;81.68;50.85;;;7.30;99.90;;;;;;4951163;28;20506;-72
2022/03/24 05:48:17;;;;;;;80.85;50.78;;;7.30;99.90;;;;;;4952340;28;20055;-72
2022/03/24 05:50:44;;;;;;;83.70;51.83;;;7.30;99.90;;;;;;4951409;28;20067;-72
2022/03/24 05:53:10;;;;;;;78.70;51.50;;;7.40;99.90;;;;;;4952027;28;20051;-72
2022/03/24 05:55:37;;;;;;;78.43;50.97;;;7.40;99.90;;;;;;4949777;28;20057;-72
2022/03/24 05:58:04;;;;;;;75.60;50.08;;;7.40;99.90;;;;;;4968915;28;20061;-72
2022/03/24 06:00:31;;;;;;;72.63;48.88;;;7.40;99.90;;;;;;4968708;28;20515;-72
2022/03/24 06:02:57;;;;;;;76.50;48.42;;;7.50;99.90;;;;;;4950856;28;20130;-72
2022/03/24 06:05:25;;;;;;;75.28;48.15;;;7.50;99.90;;;;;;4969367;28;20043;-72
2022/03/24 06:07:51;;;;;;;81.78;50.42;;;7.60;99.90;;;;;;4968371;28;20042;-73
2022/03/24 06:10:16;;;;;;;73.57;48.28;;;8.50;99.90;;;;;;4967316;28;20404;-72
2022/03/24 06:12:42;;;;;;;69.05;47.05;;;7.70;99.90;;;;;;4969159;28;20101;-72
2022/03/24 06:15:08;;;;;;;74.43;48.53;;;7.70;99.90;;;;;;4968571;28;20071;-72
2022/03/24 06:17:35;;;;;;;82.90;51.80;;;7.80;99.90;;;;;;4968442;28;20415;-72
2022/03/24 06:20:04;;;;;;;77.93;51.10;;;7.80;99.90;;;;;;4968112;28;20035;-72
2022/03/24 06:22:31;;;;;;;77.18;50.47;;;7.90;99.90;;;;;;4916404;28;1038525;-72
2022/03/24 06:24:57;;;;;;;83.00;50.92;;;7.90;99.90;;;;;;4966822;28;20082;-72
2022/03/24 06:27:22;;;;;;;76.18;48.28;;;8.10;99.90;;;;;;4952569;28;20082;-73
2022/03/24 06:29:48;;;;;;;71.88;47.90;;;8.10;99.90;;;;;;4968808;28;20053;-72
2022/03/24 06:32:15;;;;;;;74.05;49.17;;;8.20;99.90;;;;;;4951872;28;20041;-72
2022/03/24 06:34:40;;;;;;;76.30;48.10;;;8.30;99.90;;;;;;4968942;28;20046;-73
2022/03/24 06:37:06;;;;;;;76.18;49.60;;;8.40;99.90;;;;;;4968600;28;20046;-72
2022/03/24 06:39:32;;;;;;;76.63;49.33;;;8.50;99.90;;;;;;4969130;28;20089;-74
2022/03/24 06:41:57;;;;;;;75.40;48.92;;;8.70;99.90;;;;;;4970311;28;20046;-74
2022/03/24 06:44:23;;;;;;;81.47;49.63;;;8.80;99.90;;;;;;4987987;28;20121;-74
2022/03/24 06:46:48;;;;;;;83.00;49.45;;;8.90;99.90;;;;;;4987980;28;20478;-73
2022/03/24 06:49:15;;;;;;;74.68;48.08;;;9.10;99.90;;;;;;4988755;28;20054;-74
2022/03/24 06:51:41;;;;;;;70.20;47.20;;;10.20;99.90;;;;;;4987646;28;20113;-73
2022/03/24 06:54:07;;;;;;;70.65;47.13;;;9.40;99.90;;;;;;4971205;28;20392;-73
2022/03/24 06:56:33;;;;;;;72.45;48.63;;;9.50;99.90;;;;;;4986477;28;20089;-73
2022/03/24 06:58:59;;;;;;;79.57;47.50;;;9.70;99.90;;;;;;4970631;28;20438;-73
2022/03/24 07:01:25;;;;;;;67.18;45.70;;;10.10;99.90;;;;;;4988100;28;20042;-73
2022/03/24 07:03:51;;;;;;;72.50;46.95;;;10.50;99.90;;;;;;4987808;28;20163;-74
2022/03/24 07:06:16;;;;;;;70.38;45.72;;;12.10;99.90;;;;;;4970016;28;20117;-73
2022/03/24 07:08:42;;;;;;;74.95;46.63;;;13.70;99.90;;;;;;4988035;28;20487;-74
2022/03/24 07:11:08;;;;;;;71.65;45.65;;;15.10;99.90;;;;;;4969122;28;20479;-73
2022/03/24 07:13:34;;;;;;;64.57;44.03;;;16.50;99.90;;;;;;4987415;28;20078;-74
2022/03/24 07:16:00;;;;;;;65.88;43.22;;;18.10;99.90;;;;;;4987448;28;20082;-74
2022/03/24 07:18:25;;;;;;;62.05;41.45;;;18.80;99.90;;;;;;4988496;28;20057;-74
2022/03/24 07:20:51;;;;;;;62.42;43.03;;;19.60;98.50;;;;;;4968461;28;20042;-74
2022/03/24 07:23:18;;;;;;;61.75;43.85;;;19.70;97.20;;;;;;4954886;28;20057;-74
2022/03/24 07:25:44;;;;;;;57.95;42.05;;;21.90;95.70;;;;;;4988729;28;20046;-73
2022/03/24 07:28:12;;;;;;;64.07;42.13;;;21.60;94.50;;;;;;4974202;28;20053;-74
2022/03/24 07:30:38;;;;;;;63.88;41.92;;;22.20;93.70;;;;;;4973414;28;20043;-74
2022/03/24 07:33:04;;;;;;;58.65;41.85;;;23.70;92.40;;;;;;4991237;28;20052;-74
2022/03/24 07:35:33;;;;;;;59.70;40.28;;;24.00;90.30;;;;;;4990073;28;20137;-74
2022/03/24 07:37:59;;;;;;;61.08;42.35;;;24.20;89.30;;;;;;4990904;28;20046;-73
2022/03/24 07:40:26;;;;;;;56.47;41.10;;;24.00;86.60;;;;;;4989424;28;20050;-74
2022/03/24 07:42:53;;;;;;;59.40;44.72;;;23.40;84.80;;;;;;4990942;28;20137;-73
2022/03/24 07:45:22;;;;;;;61.72;42.83;;;22.40;84.60;;;;;;4973780;28;20180;-74
2022/03/24 07:48:11;;;;;;;57.25;41.88;;;20.70;86.40;;;;;;4990396;28;20396;-73
2022/03/24 07:50:38;;;;;;;56.90;41.92;;;19.30;91.00;;;;;;4973517;28;20065;-74
2022/03/24 07:53:13;;;;;;;55.97;43.45;;;18.40;93.30;;;;;;4973755;28;20046;-74
2022/03/24 07:55:41;;;;;;;60.20;43.55;;;17.60;95.20;;;;;;4989370;28;20050;-73
2022/03/24 07:58:08;;;;;;;59.22;44.38;;;17.00;96.40;;;;;;4991095;28;20142;-73
2022/03/24 08:00:35;;;;;;;60.67;43.33;;;16.50;97.30;;;;;;4991842;28;20046;-73
2022/03/24 08:03:00;;;;;;;56.30;41.67;;;16.70;98.20;;;;;;4991469;28;20134;-73
2022/03/24 08:05:26;;;;;;;60.83;43.33;;;16.10;97.90;;;;;;4956841;28;20169;-72
2022/03/24 08:07:56;;;;;;;62.67;42.80;;;15.80;98.90;;;;;;4991202;28;20394;-73
2022/03/24 08:10:22;;;;;;;62.05;41.78;;;16.10;99.90;;;;;;4989087;28;20117;-72
2022/03/24 08:12:48;;;;;;;52.33;40.33;;;15.20;99.90;;;;;;4973359;28;20130;-73
2022/03/24 08:15:13;;;;;;;54.83;39.70;;;15.20;99.90;;;;;;4990656;28;20073;-72
2022/03/24 08:17:39;;;;;;;55.22;39.78;;;15.60;99.90;;;;;;4990484;28;20140;-73
2022/03/24 08:20:06;;;;;;;52.88;39.40;;;15.40;99.90;;;;;;4957439;28;20105;-72
2022/03/24 08:22:32;;;;;;;54.40;38.17;;;15.10;99.90;;;;;;4989634;28;20158;-73
2022/03/24 08:24:57;;;;;;;55.33;37.10;;;15.10;99.90;;;;;;4989305;28;20120;-74
2022/03/24 08:27:23;;;;;;;48.05;36.08;;;15.10;99.90;;;;;;4990841;28;20042;-74
2022/03/24 08:29:49;;;;;;;54.20;37.42;;;15.20;99.90;;;;;;4989093;28;20042;-73
2022/03/24 08:32:15;;;;;;;57.38;38.53;;;15.20;99.90;;;;;;4973382;28;20070;-74
2022/03/24 08:34:41;;;;;;;51.15;37.22;;;15.30;99.90;;;;;;4972350;28;20048;-74
2022/03/24 08:37:07;;;;;;;55.40;36.83;;;15.30;99.90;;;;;;4990046;28;20054;-74
2022/03/24 08:39:33;;;;;;;52.22;37.67;;;15.50;99.90;;;;;;4989419;28;20038;-74
2022/03/24 08:41:59;;;;;;;52.97;37.83;;;15.60;99.90;;;;;;4986162;28;20133;-72
2022/03/24 08:44:25;;;;;;;51.25;36.95;;;15.70;99.70;;;;;;4970496;28;20050;-73
2022/03/24 08:46:50;;;;;;;55.42;38.53;;;15.90;99.40;;;;;;4969822;28;20039;-73
2022/03/24 08:49:16;;;;;;;54.45;38.83;;;16.80;99.50;;;;;;4971653;28;20061;-73
2022/03/24 08:51:42;;;;;;;52.15;38.25;;;16.00;99.10;;;;;;4969719;28;20446;-74
2022/03/24 08:54:08;;;;;;;59.60;40.35;;;16.50;99.00;;;;;;4986027;28;20582;-73
2022/03/24 08:56:33;;;;;;;52.08;38.67;;;17.10;99.00;;;;;;4990982;28;20046;-73
2022/03/24 08:58:59;;;;;;;55.22;39.45;;;18.80;97.70;;;;;;4989157;28;20046;-73
2022/03/24 09:01:28;;;;;;;58.53;40.53;;;21.00;95.30;;;;;;4989856;28;20139;-74
2022/03/24 09:03:54;;;;;;;57.35;40.30;;;23.10;91.40;;;;;;4973092;28;20119;-72
2022/03/24 09:06:20;;;;;;;53.97;40.00;;;25.20;87.20;;;;;;4972762;28;20046;-73
2022/03/24 09:08:45;;;;;;;47.72;37.78;;;26.30;76.50;;;;;;4990123;28;20046;-73
2022/03/24 09:11:11;;;;;;;50.60;36.72;;;27.80;72.40;;;;;;4988602;28;20530;-73
2022/03/24 09:13:37;;;;;;;50.20;36.53;;;28.70;65.60;;;;;;4972122;28;20139;-74
2022/03/24 09:16:05;;;;;;;47.72;37.60;;;29.70;61.50;;;;;;4990562;28;20514;-73
2022/03/24 09:18:31;;;;;;;46.92;36.92;;;30.50;58.20;;;;;;4990061;28;20038;-73
2022/03/24 09:20:56;;;;;;;47.40;35.25;;;31.40;56.80;;;;;;4988378;28;20062;-73
2022/03/24 09:23:24;;;;;;;47.85;35.58;;;32.20;53.80;;;;;;4989560;28;20058;-73
2022/03/24 09:25:50;;;;;;;42.30;34.80;;;32.80;51.70;;;;;;4987462;28;20053;-73
2022/03/24 09:28:16;;;;;;;46.05;34.47;;;33.50;50.60;;;;;;4989502;28;20046;-73
2022/03/24 09:30:42;;;;;;;43.60;35.13;;;33.90;47.60;;;;;;4989004;28;20491;-74
2022/03/24 09:33:11;;;;;;;43.10;35.05;;;34.50;47.50;;;;;;4988634;28;20466;-72
2022/03/24 09:35:37;;;;;;;41.80;34.72;;;34.90;47.30;;;;;;4970888;28;20050;-72
2022/03/24 09:38:03;;;;;;;43.03;35.08;;;35.50;46.60;;;;;;4988886;28;20122;-73
2022/03/24 09:40:29;;;;;;;41.85;35.28;;;36.00;45.00;;;;;;4985683;28;20537;-72
2022/03/24 09:42:57;;;;;;;38.90;34.50;;;36.40;44.60;;;;;;4988444;28;20402;-72
2022/03/24 09:45:24;;;;;;;42.53;34.40;;;36.80;43.80;;;;;;4988360;28;20043;-72
2022/03/24 09:47:50;;;;;;;43.03;33.83;;;37.00;43.20;;;;;;4970022;28;20064;-72
2022/03/24 09:50:17;;;;;;;38.97;33.60;;;37.10;42.40;;;;;;4988744;28;20110;-72
2022/03/24 09:52:43;;;;;;;44.08;35.55;;;36.80;42.70;;;;;;4971912;28;20396;-72
2022/03/24 09:55:10;;;;;;;42.13;34.13;;;37.20;42.50;;;;;;4969933;28;20065;-73
2022/03/24 09:57:37;;;;;;;41.80;34.63;;;37.70;42.50;;;;;;4991036;28;20081;-73
2022/03/24 10:00:05;;;;;;;41.15;34.20;;;38.20;41.80;;;;;;4988884;28;20353;-73
2022/03/24 10:02:31;;;;;;;38.08;33.50;;;38.70;42.20;;;;;;4988643;28;20097;-74
2022/03/24 10:05:01;;;;;;;42.67;34.35;;;39.00;41.20;;;;;;4988984;28;20553;-73
2022/03/24 10:07:28;;;;;;;36.53;32.60;;;39.10;41.00;;;;;;4989193;28;20053;-73
2022/03/24 10:09:56;;;;;;;39.58;33.58;;;39.60;40.60;;;;;;4987019;28;20141;-73
2022/03/24 10:12:28;;;;;;;38.42;33.15;;;40.00;39.90;;;;;;4989375;28;20054;-73
2022/03/24 10:15:05;;;;;;;36.45;32.55;;;40.10;39.40;;;;;;4981735;28;20061;-73
2022/03/24 10:17:32;;;;;;;41.40;33.55;;;40.20;39.50;;;;;;4969661;28;20125;-73
2022/03/24 10:20:15;;;;;;;37.17;33.20;;;40.10;39.30;;;;;;4968701;28;20123;-73
2022/03/24 10:22:55;;;;;;;39.67;33.58;;;40.30;39.30;;;;;;4967932;28;20055;-73
2022/03/24 10:25:30;;;;;;;37.72;31.65;;;40.60;39.10;;;;;;4963719;28;20086;-73
2022/03/24 10:28:10;;;;;;;36.97;32.00;;;41.10;38.70;;;;;;4952181;28;20101;-72
2022/03/24 10:30:53;;;;;;;34.28;30.15;;;41.40;38.30;;;;;;4967833;28;20137;-73
2022/03/24 10:33:40;;;;;;;34.28;30.38;;;41.50;38.60;;;;;;4970087;28;20489;-73
2022/03/24 10:36:18;;;;;;;32.72;29.13;;;41.40;38.00;;;;;;4967890;28;20086;-73
2022/03/24 10:38:49;;;;;;;35.10;31.30;;;41.40;37.60;;;;;;4968782;28;20515;-74
2022/03/24 10:41:18;;;;;;;36.70;30.48;;;41.60;37.40;;;;;;4967256;28;20054;-72
2022/03/24 10:43:44;;;;;;;32.83;28.88;;;41.60;36.90;;;;;;4968635;28;20047;-72
2022/03/24 10:46:22;;;;;;;35.50;29.58;;;41.20;36.60;;;;;;4968347;28;20137;-72
2022/03/24 10:48:49;;;;;;;37.15;31.13;;;41.50;36.80;;;;;;4968965;28;20352;-72
2022/03/24 10:51:22;;;;;;;35.65;29.15;;;41.60;36.80;;;;;;4952247;28;20046;-72
2022/03/24 10:53:48;;;;;;;33.17;29.58;;;41.90;36.50;;;;;;4968933;28;20047;-73
2022/03/24 10:56:18;;;;;;;34.50;28.35;;;41.90;36.40;;;;;;4967542;28;20042;-73
2022/03/24 10:58:54;;;;;;;30.50;27.25;;;42.00;36.20;;;;;;4951199;28;20050;-73
2022/03/24 11:01:22;;;;;;;33.42;28.92;;;42.40;35.70;;;;;;4972416;28;20042;-72
2022/03/24 11:03:48;;;;;;;30.77;27.55;;;42.80;35.50;;;;;;4959462;28;20050;-72
2022/03/24 11:06:17;;;;;;;29.92;26.83;;;43.00;35.70;;;;;;4991646;28;20038;-72
2022/03/24 11:08:43;;;;;;;33.38;25.33;;;43.30;35.50;;;;;;4974468;28;20137;-73
2022/03/24 11:11:15;;;;;;;30.27;22.90;;;43.30;34.50;;;;;;4973139;28;20101;-72
2022/03/24 11:13:47;;;;;;;30.75;26.45;;;43.60;34.20;;;;;;4974171;28;20101;-72
2022/03/24 11:16:15;;;;;;;30.95;26.67;;;44.00;34.30;;;;;;4991928;28;20434;-71
2022/03/24 11:18:41;;;;;;;28.83;25.20;;;43.80;34.40;;;;;;4991563;28;20049;-72
2022/03/24 11:21:13;;;;;;;29.20;25.20;;;43.90;34.20;;;;;;4973754;28;20069;-73
2022/03/24 11:23:41;;;;;;;27.42;23.98;;;44.50;33.40;;;;;;4991984;28;20051;-73
2022/03/24 11:26:09;;;;;;;30.83;23.00;;;44.10;33.50;;;;;;4989344;28;20479;-73
2022/03/24 11:28:36;;;;;;;26.65;22.40;;;43.90;33.30;;;;;;4991938;28;20046;-74
2022/03/24 11:31:10;;;;;;;24.48;21.85;;;43.80;33.00;;;;;;4991211;28;20038;-74
2022/03/24 11:33:48;;;;;;;28.38;25.27;;;43.60;32.40;;;;;;4991512;28;20058;-72
2022/03/24 11:36:17;;;;;;;31.48;24.77;;;43.30;32.50;;;;;;4991975;28;20046;-73
2022/03/24 11:38:45;;;;;;;29.38;24.23;;;42.40;33.00;;;;;;4992131;28;20398;-72
2022/03/24 11:41:22;;;;;;;27.88;24.20;;;42.10;33.20;;;;;;4989451;28;20351;-72
2022/03/24 11:43:55;;;;;;;28.17;25.05;;;41.80;33.20;;;;;;4991090;28;20061;-72
2022/03/24 11:46:53;;;;;;;26.45;22.70;;;41.80;33.50;;;;;;4973875;28;20552;-73
2022/03/24 11:49:19;;;;;;;29.40;24.98;;;41.80;33.50;;;;;;4958916;28;20055;-73
2022/03/24 11:51:49;;;;;;;29.75;25.17;;;41.80;33.10;;;;;;4991859;28;20394;-73
2022/03/24 11:54:30;;;;;;;32.58;26.10;;;41.00;33.50;;;;;;4961593;28;20134;-73
2022/03/24 11:57:32;;;;;;;27.75;24.92;;;40.80;33.80;;;;;;4952907;28;20058;-73
2022/03/24 12:00:13;;;;;;;29.00;25.85;;;40.70;33.60;;;;;;4953525;28;20042;-73
2022/03/24 12:02:43;;;;;;;30.02;25.10;;;40.70;33.80;;;;;;4953192;28;20462;-73
2022/03/24 12:05:10;;;;;;;27.25;24.35;;;40.00;34.00;;;;;;4971027;28;20126;-73
2022/03/24 12:07:36;;;;;;;29.30;26.00;;;40.20;33.80;;;;;;4970586;28;20375;-73
2022/03/24 12:10:14;;;;;;;30.73;24.20;;;40.50;33.50;;;;;;4969895;28;20118;-73
2022/03/24 12:13:00;;;;;;;32.83;23.75;;;39.80;33.90;;;;;;4972337;28;20053;-73
2022/03/24 12:15:26;;;;;;;30.17;25.08;;;39.80;33.50;;;;;;4970775;28;20118;-73
2022/03/24 12:18:02;;;;;;;26.23;23.08;;;40.20;33.50;;;;;;4971405;28;20389;-73
2022/03/24 12:20:38;;;;;;;28.75;23.80;;;40.00;33.80;;;;;;4971229;28;20518;-73
2022/03/24 12:23:03;;;;;;;34.45;25.20;;;40.10;33.50;;;;;;4971211;28;20102;-73
2022/03/24 12:25:30;;;;;;;28.30;25.08;;;40.00;33.30;;;;;;4969952;28;20476;-73
2022/03/24 12:28:09;;;;;;;28.13;24.75;;;39.90;33.20;;;;;;4990583;28;20125;-73
2022/03/24 12:30:52;;;;;;;27.85;23.33;;;39.80;33.20;;;;;;4988996;28;20038;-73
2022/03/24 12:33:36;;;;;;;31.10;24.73;;;39.40;33.10;;;;;;4973756;28;20058;-73
2022/03/24 12:36:04;;;;;;;31.73;24.60;;;39.30;33.30;;;;;;4990211;28;20050;-73
2022/03/24 12:38:43;;;;;;;28.63;24.05;;;39.10;33.40;;;;;;4972908;28;20065;-73
2022/03/24 12:41:09;;;;;;;32.92;25.00;;;38.90;33.50;;;;;;4957478;28;20088;-74